Airfield :
LOGIN :

Register | Disclaimer

   EN    FR    IT 

 










Legend :    VFR   Marginal VFR   IFR   Intensive IFR   Very Intensive IFR
Visi :
Ceiling :
>= 8 km
>= 3000ft
5 to 8 km
1000 to 3000 ft
1500m to 5 km
500 to 1000 ft
800 to 1500m
200 to 500 ft
< 800m
< 200 ft
Symbols :   Thunderstorms  Fog  Heavy snow  Heavy precipitations  Wind > 20 kt
SIGMETs :     Misc.  Thunderstorms  Icing  Turbulence  Mountain Waves  Volcanic Ashes







- Airport Elevation : 157 ft
- IATA code : LIL
- Download approach charts


LFQQ - Lille Lesquin

CURRENT METAR :
  • 201500Z AUTO 27013KT CAVOK 21/07 Q1024 NOSIG

EXPIRED METARs :
  • 201430Z AUTO 25012KT CAVOK 22/08 Q1024 NOSIG
  • 201400Z AUTO 25011KT 220V280 CAVOK 21/08 Q1024 NOSIG
  • 201330Z AUTO 26009KT 220V290 CAVOK 20/07 Q1024 NOSIG
  • 201300Z AUTO 26011KT CAVOK 22/08 Q1024 NOSIG
  • 201230Z AUTO 25009KT 200V300 CAVOK 21/08 Q1024 NOSIG

TAF TAF LFQQ
Valid from the 20 at 12:00 until the 21 at 18:00 UTC


201100Z 2012/2118 26010KT 9999 SCT040
BECMG 2018/2020 VRB02KT
TEMPO 2101/2113 4000 RA
FM211300 16008KT 8000 OVC015
TEMPO 2113/2118 2000 DZRA OVC005
ATIS : +33 3 20 16 19 54
No reported NOTAMs for that airfield.



MET'MAP, your aeronautical weather chart ! - Copyright ORBIFLY December 2007 - Disclaimer

ORBIFLY MET'MAP TEAM :

Programming & Development : Alexandra Zaïnal
Concept & Development : Baudouin d'Aumeries
Co-Development & Prog : Marc-Olivier Méhu
Technical & hardware support : Manuel Goepfert

Contact : metmap@orbifly.com




SOURCES & CREDITS :

   NOAA